Accueil
METAR-TAF:

METAR-TAF

Aéroports :

Beaver Creek, Yukon, Canada

latitude: 62-25N, longitude: 140-52W, altitude: 649 m

Observation

Le bulletin a été fait il y a 38 minutes, à 23:00 UTC
Vent 2 kt de direction variable
Température -25°C
Humidité 76%
Pression 1002 hPa
Visibilité: 32.2 km
Ciel couvert à une hauteur de 1800 ft

METAR: CYXQ 222300Z VRB02KT 20SM OVC018 M25/M28 A2958 RMK SC8 /LAST STFD OBS/NXT 231700Z/ SLP103

Heure: 15:38 (23:38 UTC)


TAF: absent

Observations et prévisions météorologiques de plus de 4000 aéroports (messages METAR et TAF).

Les stations disponibles sont représentées par des disques jaunes et rouges sur la carte.

Passer la souris dessus pour voir le nom de la station.

Cliquer dessus pour voir les observations et prévisions météorologiques.

Pour changer de carte: cliquez sur les boutons verts avec une croix noire pour zoomer, sur le bouton vert avec un tiret pour effectuer un zoom arrière, ou sur les flèches vertes pour les cartes adjacentes.


METAR-TAF: